Armstrong Mills, Ohio
Current Conditions -  °F | °C
As of 8:53 PM on Wednesday 17 Dec 2014 (Local Time) from KHLG Reporting Station
Overcast Overcast  
Wind Chill: 19°   Ceiling: 2700
Heat Index: 30°   Visibility: 10mi
Dew Point: 21°   Wind: 16mph
Humidity: 69%   Direction: 250°WSW
Pressure: 30.12"   Gusts: 21mph
Location:  39.9375°N, 80.8976°W
Report Text: KHLG 180153Z 25014G18KT 10SM OVC027 M01/M06 A3012 RMK AO2 SLP215 T10111061
Loading
Personal Weather Stations






























Interactive Weather Map New forecast layout! Learn more

10-Day Weather Forecast

Advertisements
Track Severe Weather on mobile